Time,TemperatureF,DewpointF,PressureIn,WindDirection,WindDirectionDegrees,WindSpeedMPH,WindSpeedGustMPH,Humidity,HourlyPrecipIn,Conditions,Clouds,dailyrainin,SolarRadiationWatts/m^2,SoftwareType,DateUTC
2013-03-12 00:14:00,49.9,49.0,30.15,SE,126,0.0,0.0,98,0.00,,,0.01,0,weatherlink.com 1.10,2013-03-12 07:14:00,
2013-03-12 00:29:00,49.7,49.0,30.15,SSE,162,0.0,2.0,98,0.00,,,0.01,0,weatherlink.com 1.10,2013-03-12 07:29:00,
2013-03-12 00:44:00,49.7,49.0,30.14,SE,126,0.0,0.0,98,0.00,,,0.01,0,weatherlink.com 1.10,2013-03-12 07:44:00,
2013-03-12 00:59:00,50.0,50.0,30.14,WNW,292,2.0,7.0,98,0.00,,,0.00,0,weatherlink.com 1.10,2013-03-12 07:59:00,
2013-03-12 01:14:00,49.6,49.0,30.15,West,261,2.0,6.0,98,0.00,,,0.00,0,weatherlink.com 1.10,2013-03-12 08:14:00,
2013-03-12 01:29:00,49.5,49.0,30.15,WNW,286,3.0,5.0,98,0.00,,,0.00,0,weatherlink.com 1.10,2013-03-12 08:29:00,
2013-03-12 01:44:00,49.5,49.0,30.15,West,273,1.0,7.0,98,0.00,,,0.00,0,weatherlink.com 1.10,2013-03-12 08:44:00,
2013-03-12 01:59:00,49.6,49.0,30.15,NW,304,0.0,6.0,98,0.00,,,0.00,0,weatherlink.com 1.10,2013-03-12 08:59:00,
2013-03-12 02:14:00,49.4,49.0,30.14,West,281,0.0,7.0,98,0.00,,,0.00,0,weatherlink.com 1.10,2013-03-12 09:14:00,
2013-03-12 02:30:00,49.1,49.0,30.14,SSW,207,4.0,7.0,98,0.00,,,0.00,0,weatherlink.com 1.10,2013-03-12 09:30:00,
2013-03-12 02:45:00,49.1,49.0,30.14,SW,219,4.0,6.0,98,0.00,,,0.00,0,weatherlink.com 1.10,2013-03-12 09:45:00,
2013-03-12 03:00:00,49.0,49.0,30.14,SSW,205,0.0,6.0,98,0.00,,,0.00,0,weatherlink.com 1.10,2013-03-12 10:00:00,
2013-03-12 03:15:00,49.1,49.0,30.13,South,189,2.0,4.0,98,0.00,,,0.00,0,weatherlink.com 1.10,2013-03-12 10:15:00,
2013-03-12 03:30:00,48.8,48.0,30.13,ESE,107,2.0,6.0,98,0.00,,,0.00,0,weatherlink.com 1.10,2013-03-12 10:30:00,
2013-03-12 03:45:00,48.5,48.0,30.13,SE,138,3.0,4.0,98,0.00,,,0.00,0,weatherlink.com 1.10,2013-03-12 10:45:00,
2013-03-12 04:00:00,48.7,48.0,30.13,SE,127,4.0,7.0,98,0.00,,,0.00,0,weatherlink.com 1.10,2013-03-12 11:00:00,
2013-03-12 04:15:00,48.2,48.0,30.12,SE,134,5.0,6.0,98,0.00,,,0.00,0,weatherlink.com 1.10,2013-03-12 11:15:00,
2013-03-12 04:31:00,48.0,48.0,30.12,SE,126,3.0,6.0,99,0.00,,,0.00,0,weatherlink.com 1.10,2013-03-12 11:31:00,
2013-03-12 04:46:00,47.9,48.0,30.12,SE,140,1.0,6.0,99,0.00,,,0.00,0,weatherlink.com 1.10,2013-03-12 11:46:00,
2013-03-12 05:01:00,48.3,48.0,30.13,SSW,203,5.0,8.0,99,0.00,,,0.00,0,weatherlink.com 1.10,2013-03-12 12:01:00,
2013-03-12 05:15:00,48.4,48.0,30.13,South,178,2.0,7.0,99,0.00,,,0.00,0,weatherlink.com 1.10,2013-03-12 12:15:00,
2013-03-12 05:31:00,47.9,48.0,30.13,SE,129,2.0,6.0,99,0.00,,,0.00,0,weatherlink.com 1.10,2013-03-12 12:31:00,
2013-03-12 05:46:00,47.7,48.0,30.12,SE,128,1.0,5.0,99,0.00,,,0.00,0,weatherlink.com 1.10,2013-03-12 12:46:00,
2013-03-12 06:01:00,47.3,47.0,30.13,East,93,4.0,5.0,99,0.00,,,0.00,0,weatherlink.com 1.10,2013-03-12 13:01:00,
2013-03-12 06:16:00,47.2,47.0,30.13,East,94,1.0,3.0,99,0.00,,,0.00,0,weatherlink.com 1.10,2013-03-12 13:16:00,
2013-03-12 06:31:00,46.7,47.0,30.12,ENE,72,2.0,5.0,99,0.00,,,0.00,0,weatherlink.com 1.10,2013-03-12 13:31:00,
2013-03-12 06:47:00,46.6,46.0,30.13,ENE,61,0.0,4.0,99,0.00,,,0.00,0,weatherlink.com 1.10,2013-03-12 13:47:00,
2013-03-12 07:02:00,46.1,46.0,30.13,SE,131,0.0,4.0,99,0.00,,,0.00,0,weatherlink.com 1.10,2013-03-12 14:02:00,
2013-03-12 07:16:00,45.5,45.0,30.13,SE,131,0.0,0.0,99,0.00,,,0.00,0,weatherlink.com 1.10,2013-03-12 14:16:00,
2013-03-12 07:32:00,45.0,45.0,30.13,ENE,74,4.0,5.0,99,0.00,,,0.00,7,weatherlink.com 1.10,2013-03-12 14:32:00,
2013-03-12 07:48:00,44.5,44.0,30.14,ENE,74,0.0,1.0,99,0.00,,,0.00,28,weatherlink.com 1.10,2013-03-12 14:48:00,
2013-03-12 08:02:00,44.2,44.0,30.14,ENE,74,0.0,1.0,99,0.00,,,0.00,49,weatherlink.com 1.10,2013-03-12 15:02:00,
2013-03-12 08:17:00,45.3,45.0,30.15,ENE,74,0.0,2.0,100,0.00,,,0.00,88,weatherlink.com 1.10,2013-03-12 15:17:00,
2013-03-12 08:32:00,45.9,46.0,30.16,ENE,74,0.0,2.0,100,0.00,,,0.00,109,weatherlink.com 1.10,2013-03-12 15:32:00,
2013-03-12 08:48:00,45.7,46.0,30.16,ENE,74,0.0,2.0,100,0.00,,,0.00,142,weatherlink.com 1.10,2013-03-12 15:48:00,
2013-03-12 09:03:00,46.7,47.0,30.16,ENE,74,2.0,2.0,100,0.00,,,0.00,135,weatherlink.com 1.10,2013-03-12 16:03:00,
2013-03-12 09:19:00,46.9,47.0,30.16,ENE,57,0.0,5.0,100,0.00,,,0.00,255,weatherlink.com 1.10,2013-03-12 16:19:00,
2013-03-12 09:33:00,48.5,49.0,30.17,West,266,3.0,6.0,100,0.00,,,0.00,195,weatherlink.com 1.10,2013-03-12 16:33:00,
2013-03-12 09:48:00,47.6,47.0,30.17,WSW,256,4.0,6.0,99,0.00,,,0.00,236,weatherlink.com 1.10,2013-03-12 16:48:00,
2013-03-12 10:03:00,47.8,48.0,30.17,WNW,286,3.0,5.0,100,0.00,,,0.00,272,weatherlink.com 1.10,2013-03-12 17:03:00,
2013-03-12 10:17:00,49.2,49.0,30.16,WNW,302,1.0,4.0,100,0.00,,,0.00,381,weatherlink.com 1.10,2013-03-12 17:17:00,
2013-03-12 10:33:00,49.6,49.0,30.16,WNW,282,1.0,5.0,99,0.00,,,0.00,415,weatherlink.com 1.10,2013-03-12 17:33:00,
2013-03-12 10:49:00,51.4,51.0,30.15,WSW,242,3.0,6.0,99,0.00,,,0.00,605,weatherlink.com 1.10,2013-03-12 17:49:00,
2013-03-12 11:04:00,51.8,51.0,30.15,SW,236,2.0,6.0,98,0.00,,,0.00,638,weatherlink.com 1.10,2013-03-12 18:04:00,
2013-03-12 11:19:00,54.7,53.0,30.15,SW,236,0.0,4.0,95,0.00,,,0.00,673,weatherlink.com 1.10,2013-03-12 18:19:00,
2013-03-12 11:34:00,56.4,53.0,30.15,West,272,7.0,8.0,88,0.00,,,0.00,700,weatherlink.com 1.10,2013-03-12 18:34:00,
2013-03-12 11:49:00,54.4,51.0,30.15,WNW,294,4.0,11.0,89,0.00,,,0.00,726,weatherlink.com 1.10,2013-03-12 18:49:00,
2013-03-12 12:04:00,55.0,53.0,30.16,WNW,299,5.0,12.0,92,0.00,,,0.00,689,weatherlink.com 1.10,2013-03-12 19:04:00,
2013-03-12 12:19:00,54.8,52.0,30.15,West,277,6.0,8.0,90,0.00,,,0.00,439,weatherlink.com 1.10,2013-03-12 19:19:00,
2013-03-12 12:34:00,54.4,52.0,30.15,West,271,2.0,6.0,90,0.00,,,0.00,552,weatherlink.com 1.10,2013-03-12 19:34:00,
2013-03-12 12:49:00,53.8,51.0,30.14,West,275,4.0,8.0,91,0.00,,,0.00,789,weatherlink.com 1.10,2013-03-12 19:49:00,
2013-03-12 13:05:00,55.3,52.0,30.14,NW,310,8.0,9.0,88,0.00,,,0.00,793,weatherlink.com 1.10,2013-03-12 20:05:00,
2013-03-12 13:20:00,55.5,53.0,30.14,WNW,290,8.0,9.0,90,0.00,,,0.00,800,weatherlink.com 1.10,2013-03-12 20:20:00,
2013-03-12 13:35:00,58.1,54.0,30.13,NW,306,6.0,9.0,85,0.00,,,0.00,791,weatherlink.com 1.10,2013-03-12 20:35:00,
2013-03-12 13:50:00,59.1,54.0,30.12,WNW,288,5.0,8.0,83,0.00,,,0.00,788,weatherlink.com 1.10,2013-03-12 20:50:00,
2013-03-12 14:05:00,57.3,53.0,30.12,NW,325,4.0,12.0,85,0.00,,,0.00,777,weatherlink.com 1.10,2013-03-12 21:05:00,
2013-03-12 14:20:00,56.7,52.0,30.12,WNW,297,6.0,11.0,85,0.00,,,0.00,763,weatherlink.com 1.10,2013-03-12 21:20:00,
2013-03-12 14:35:00,54.6,52.0,30.12,WNW,290,5.0,13.0,89,0.00,,,0.00,745,weatherlink.com 1.10,2013-03-12 21:35:00,
2013-03-12 14:50:00,55.0,52.0,30.11,WNW,292,4.0,12.0,89,0.00,,,0.00,742,weatherlink.com 1.10,2013-03-12 21:50:00,
2013-03-12 15:05:00,54.1,51.0,30.11,WNW,298,10.0,14.0,89,0.00,,,0.00,580,weatherlink.com 1.10,2013-03-12 22:05:00,
2013-03-12 15:21:00,54.0,51.0,30.11,West,277,4.0,15.0,90,0.00,,,0.00,448,weatherlink.com 1.10,2013-03-12 22:21:00,
2013-03-12 15:36:00,52.9,51.0,30.12,NW,323,4.0,15.0,92,0.00,,,0.00,408,weatherlink.com 1.10,2013-03-12 22:36:00,
2013-03-12 15:51:00,52.6,51.0,30.12,WNW,295,7.0,12.0,93,0.00,,,0.00,330,weatherlink.com 1.10,2013-03-12 22:51:00,
2013-03-12 16:06:00,52.9,51.0,30.11,West,277,6.0,9.0,92,0.00,,,0.00,350,weatherlink.com 1.10,2013-03-12 23:06:00,
2013-03-12 16:21:00,54.4,52.0,30.11,WNW,300,5.0,8.0,92,0.00,,,0.00,504,weatherlink.com 1.10,2013-03-12 23:21:00,
2013-03-12 16:36:00,54.4,52.0,30.11,NNW,329,2.0,8.0,90,0.00,,,0.00,258,weatherlink.com 1.10,2013-03-12 23:36:00,
2013-03-12 16:51:00,54.5,52.0,30.10,WSW,256,2.0,6.0,90,0.00,,,0.00,425,weatherlink.com 1.10,2013-03-12 23:51:00,
2013-03-12 17:06:00,56.4,53.0,30.11,West,265,3.0,7.0,87,0.00,,,0.00,388,weatherlink.com 1.10,2013-03-13 00:06:00,
2013-03-12 17:21:00,54.0,51.0,30.11,West,279,6.0,10.0,89,0.00,,,0.00,366,weatherlink.com 1.10,2013-03-13 00:21:00,
2013-03-12 17:37:00,52.3,50.0,30.11,WSW,255,7.0,11.0,92,0.00,,,0.00,179,weatherlink.com 1.10,2013-03-13 00:37:00,
2013-03-12 17:52:00,50.6,49.0,30.12,West,267,7.0,11.0,94,0.00,,,0.00,91,weatherlink.com 1.10,2013-03-13 00:52:00,
2013-03-12 18:07:00,49.8,49.0,30.12,WNW,300,2.0,12.0,95,0.00,,,0.00,74,weatherlink.com 1.10,2013-03-13 01:07:00,
2013-03-12 18:22:00,49.7,49.0,30.12,WNW,284,5.0,8.0,96,0.00,,,0.00,72,weatherlink.com 1.10,2013-03-13 01:22:00,
2013-03-12 18:37:00,49.7,49.0,30.12,WNW,293,2.0,7.0,97,0.00,,,0.00,25,weatherlink.com 1.10,2013-03-13 01:37:00,
2013-03-12 18:52:00,49.4,49.0,30.12,NW,320,5.0,10.0,97,0.00,,,0.00,23,weatherlink.com 1.10,2013-03-13 01:52:00,
2013-03-12 19:07:00,49.1,49.0,30.13,West,273,3.0,9.0,98,0.00,,,0.00,5,weatherlink.com 1.10,2013-03-13 02:07:00,
2013-03-12 19:22:00,49.3,49.0,30.13,WNW,300,8.0,11.0,98,0.00,,,0.00,0,weatherlink.com 1.10,2013-03-13 02:22:00,
2013-03-12 19:37:00,49.6,49.0,30.13,West,263,10.0,14.0,98,0.00,,,0.00,0,weatherlink.com 1.10,2013-03-13 02:37:00,
2013-03-12 19:52:00,49.3,49.0,30.14,West,270,6.0,14.0,98,0.00,,,0.00,0,weatherlink.com 1.10,2013-03-13 02:52:00,
2013-03-12 20:08:00,49.3,49.0,30.14,West,260,2.0,11.0,98,0.00,,,0.00,0,weatherlink.com 1.10,2013-03-13 03:08:00,
2013-03-12 20:23:00,49.1,49.0,30.13,WNW,287,6.0,8.0,98,0.00,,,0.00,0,weatherlink.com 1.10,2013-03-13 03:23:00,
2013-03-12 20:38:00,48.7,48.0,30.14,NW,309,1.0,7.0,98,0.00,,,0.00,0,weatherlink.com 1.10,2013-03-13 03:38:00,
2013-03-12 20:53:00,48.6,48.0,30.14,West,267,0.0,6.0,99,0.00,,,0.00,0,weatherlink.com 1.10,2013-03-13 03:53:00,
2013-03-12 21:08:00,48.5,48.0,30.13,West,265,1.0,4.0,99,0.00,,,0.00,0,weatherlink.com 1.10,2013-03-13 04:08:00,
2013-03-12 21:23:00,48.1,48.0,30.14,SW,219,2.0,6.0,99,0.00,,,0.00,0,weatherlink.com 1.10,2013-03-13 04:23:00,
2013-03-12 21:38:00,48.0,48.0,30.13,South,188,0.0,4.0,99,0.00,,,0.00,0,weatherlink.com 1.10,2013-03-13 04:38:00,
2013-03-12 21:53:00,48.0,48.0,30.14,South,173,0.0,5.0,99,0.00,,,0.00,0,weatherlink.com 1.10,2013-03-13 04:53:00,
2013-03-12 22:08:00,48.1,48.0,30.14,SSW,194,0.0,4.0,99,0.00,,,0.00,0,weatherlink.com 1.10,2013-03-13 05:08:00,
2013-03-12 22:23:00,48.3,48.0,30.14,SSE,148,2.0,6.0,99,0.00,,,0.00,0,weatherlink.com 1.10,2013-03-13 05:23:00,
2013-03-12 22:39:00,47.9,48.0,30.14,SSE,147,2.0,5.0,99,0.00,,,0.00,0,weatherlink.com 1.10,2013-03-13 05:39:00,
2013-03-12 22:54:00,48.2,48.0,30.14,South,176,1.0,4.0,99,0.00,,,0.00,0,weatherlink.com 1.10,2013-03-13 05:54:00,
2013-03-12 23:09:00,47.7,48.0,30.14,SE,130,2.0,3.0,99,0.00,,,0.00,0,weatherlink.com 1.10,2013-03-13 06:09:00,
2013-03-12 23:24:00,47.9,48.0,30.15,South,177,2.0,5.0,99,0.00,,,0.00,0,weatherlink.com 1.10,2013-03-13 06:24:00,
2013-03-12 23:39:00,47.2,47.0,30.15,SSE,151,0.0,4.0,99,0.00,,,0.00,0,weatherlink.com 1.10,2013-03-13 06:39:00,
2013-03-12 23:54:00,47.0,47.0,30.15,SE,127,2.0,3.0,100,0.00,,,0.00,0,weatherlink.com 1.10,2013-03-13 06:54:00,